Time;durP1;ratioP1;P1;durP2;ratioP2;P2;SDS_P1;SDS_P2;PMS_P1;PMS_P2;Temp;Humidity;BMP_temperature;BMP_pressure;BME280_temperature;BME280_humidity;BME280_pressure;Samples;Min_cycle;Max_cycle;Signal;HPM_P1;HPM_P2
2023/12/22 00:00:07;;;;;;;0.55;0.30;;;;;;;6.73;100.00;98198.25;334641;29;4744;-75
2023/12/22 00:00:19;;;;;;;0.60;0.25;;;;;;;6.78;100.00;98198.03;332081;29;17890;-75
2023/12/22 00:00:31;;;;;;;1.25;0.30;;;;;;;6.75;100.00;98195.59;335201;28;5580;-76
2023/12/22 00:00:43;;;;;;;1.73;0.50;;;;;;;6.77;100.00;98194.63;335355;28;17294;-75
2023/12/22 00:00:55;;;;;;;1.63;0.70;;;;;;;6.63;100.00;98196.94;327732;29;19264;-75
2023/12/22 00:01:07;;;;;;;0.70;0.52;;;;;;;6.79;100.00;98202.31;335960;28;4550;-75
2023/12/22 00:01:20;;;;;;;0.70;0.40;;;;;;;6.86;100.00;98192.56;328811;28;5288;-76
2023/12/22 00:01:32;;;;;;;0.95;0.30;;;;;;;6.85;100.00;98196.91;337177;28;4740;-75
2023/12/22 00:01:44;;;;;;;1.05;0.60;;;;;;;6.85;100.00;98190.91;335177;28;4724;-75
2023/12/22 00:01:56;;;;;;;0.95;0.65;;;;;;;6.88;100.00;98190.75;336763;28;4530;-75
2023/12/22 00:02:08;;;;;;;0.68;0.55;;;;;;;6.85;100.00;98196.91;337542;28;5798;-76
2023/12/22 00:02:20;;;;;;;0.43;0.32;;;;;;;6.77;100.00;98194.63;334255;28;18570;-75
2023/12/22 00:02:32;;;;;;;0.45;0.40;;;;;;;6.78;100.00;98196.31;337012;28;4747;-76
2023/12/22 00:02:44;;;;;;;0.50;0.50;;;;;;;6.84;100.00;98194.38;333187;28;13350;-75
2023/12/22 00:02:56;;;;;;;0.45;0.32;;;;;;;6.82;100.00;98201.34;336929;28;4717;-75
2023/12/22 00:03:08;;;;;;;0.68;0.57;;;;;;;6.82;100.00;98196.19;336592;28;5124;-75
2023/12/22 00:03:20;;;;;;;0.90;0.70;;;;;;;6.79;100.00;98200.56;334040;28;18113;-76
2023/12/22 00:03:32;;;;;;;0.88;0.68;;;;;;;6.80;100.00;98207.44;336995;28;5136;-75
2023/12/22 00:03:45;;;;;;;0.60;0.45;;;;;;;6.77;100.00;98204.97;332256;28;4845;-75
2023/12/22 00:03:58;;;;;;;0.30;0.30;;;;;;;6.80;100.00;98199.69;337122;28;4944;-76
2023/12/22 00:04:10;;;;;;;0.30;0.30;;;;;;;6.86;100.00;98213.25;333371;28;4703;-75
2023/12/22 00:04:22;;;;;;;0.20;0.20;;;;;;;6.88;100.00;98211.44;335116;28;4930;-76
2023/12/22 00:04:34;;;;;;;0.22;0.20;;;;;;;6.98;100.00;98217.91;333544;28;11545;-75
2023/12/22 00:04:46;;;;;;;0.40;0.22;;;;;;;7.04;100.00;98221.97;336825;28;4549;-76
2023/12/22 00:04:58;;;;;;;0.50;0.30;;;;;;;7.00;100.00;98226.44;337056;28;4561;-75
2023/12/22 00:05:10;;;;;;;0.32;0.32;;;;;;;7.02;100.00;98219.44;336234;28;16030;-75
2023/12/22 00:05:22;;;;;;;0.30;0.30;;;;;;;7.03;100.00;98223.72;334368;28;16634;-75
2023/12/22 00:05:34;;;;;;;0.30;0.30;;;;;;;7.06;100.00;98231.34;336764;28;4641;-75
2023/12/22 00:05:46;;;;;;;0.20;0.13;;;;;;;7.07;100.00;98230.44;333185;28;18188;-75
2023/12/22 00:05:58;;;;;;;0.20;0.17;;;;;;;7.03;100.00;98225.47;336320;28;4699;-76
2023/12/22 00:06:11;;;;;;;0.50;0.20;;;;;;;6.75;100.00;98227.44;333015;28;18004;-76
2023/12/22 00:06:23;;;;;;;1.17;0.43;;;;;;;6.73;100.00;98224.06;335821;28;4629;-76
2023/12/22 00:06:35;;;;;;;1.30;0.50;;;;;;;6.71;100.00;98228.44;327897;28;16082;-75
2023/12/22 00:06:48;;;;;;;1.02;0.50;;;;;;;6.67;100.00;98234.63;335961;28;5277;-76
2023/12/22 00:07:00;;;;;;;0.80;0.40;;;;;;;6.74;100.00;98238.69;332813;28;17765;-75
2023/12/22 00:07:12;;;;;;;0.80;0.40;;;;;;;6.61;100.00;98232.31;337219;28;4559;-75
2023/12/22 00:07:25;;;;;;;1.70;0.40;;;;;;;6.68;100.00;98236.34;335538;28;12561;-75
2023/12/22 00:07:37;;;;;;;1.70;0.40;;;;;;;6.67;100.00;98239.81;334181;28;17944;-75
2023/12/22 00:07:49;;;;;;;1.80;0.40;;;;;;;6.76;100.00;98236.88;336581;28;4589;-75
2023/12/22 00:08:02;;;;;;;0.45;0.30;;;;;;;6.78;100.00;98242.81;334619;28;14829;-76
2023/12/22 00:08:14;;;;;;;0.30;0.30;;;;;;;6.71;100.00;98251.69;332351;28;4888;-76
2023/12/22 00:08:26;;;;;;;0.30;0.30;;;;;;;6.79;100.00;98247.06;334310;28;13811;-75
2023/12/22 00:08:38;;;;;;;0.45;0.28;;;;;;;6.82;100.00;98253.84;336669;28;4698;-76
2023/12/22 00:08:50;;;;;;;1.80;0.30;;;;;;;6.82;100.00;98259.00;335919;28;4724;-76
2023/12/22 00:09:02;;;;;;;2.55;0.40;;;;;;;6.74;100.00;98261.06;333646;28;18743;-76
2023/12/22 00:09:14;;;;;;;2.50;0.40;;;;;;;6.72;100.00;98258.56;337066;28;4898;-75
2023/12/22 00:09:26;;;;;;;0.93;0.40;;;;;;;6.61;100.00;98250.38;331755;28;18234;-76
2023/12/22 00:09:38;;;;;;;0.38;0.38;;;;;;;6.58;100.00;98268.59;334778;28;16983;-76
2023/12/22 00:09:50;;;;;;;0.32;0.30;;;;;;;6.55;100.00;98261.78;337259;28;4712;-75
2023/12/22 00:10:03;;;;;;;0.80;0.30;;;;;;;6.37;100.00;98268.47;334111;28;17780;-76
2023/12/22 00:10:15;;;;;;;1.08;0.35;;;;;;;6.35;100.00;98269.44;337052;28;4720;-76
2023/12/22 00:10:27;;;;;;;0.93;0.30;;;;;;;6.43;100.00;98266.56;334502;28;4976;-76
2023/12/22 00:10:39;;;;;;;0.50;0.20;;;;;;;6.56;100.00;98267.75;336694;28;5962;-75
2023/12/22 00:10:51;;;;;;;0.20;0.20;;;;;;;6.69;100.00;98258.66;334446;28;13589;-76
2023/12/22 00:11:03;;;;;;;0.20;0.20;;;;;;;6.61;100.00;98255.53;327961;28;18346;-76
2023/12/22 00:11:15;;;;;;;0.73;0.30;;;;;;;6.54;100.00;98259.25;334594;28;4660;-76
2023/12/22 00:11:28;;;;;;;1.20;0.40;;;;;;;6.49;100.00;98253.44;328996;28;18168;-76
2023/12/22 00:11:39;;;;;;;1.23;0.35;;;;;;;6.50;100.00;98263.72;336425;28;4770;-76
2023/12/22 00:11:51;;;;;;;0.55;0.30;;;;;;;6.48;100.00;98264.63;335085;29;5637;-76
2023/12/22 00:12:04;;;;;;;0.32;0.30;;;;;;;6.44;100.00;98257.91;333161;28;18381;-75
2023/12/22 00:12:16;;;;;;;0.17;0.17;;;;;;;6.46;100.00;98258.69;335495;28;5313;-76
2023/12/22 00:12:28;;;;;;;0.20;0.20;;;;;;;6.51;100.00;98270.53;327714;28;17925;-76
2023/12/22 00:12:40;;;;;;;0.30;0.20;;;;;;;6.51;100.00;98261.97;334812;28;4622;-76
2023/12/22 00:12:52;;;;;;;0.30;0.30;;;;;;;6.55;100.00;98260.94;332879;28;15977;-75
2023/12/22 00:13:04;;;;;;;0.20;0.20;;;;;;;6.52;100.00;98263.63;336269;28;5236;-75
2023/12/22 00:13:16;;;;;;;0.30;0.30;;;;;;;6.53;100.00;98260.16;335977;28;5584;-75
2023/12/22 00:13:28;;;;;;;0.80;0.30;;;;;;;6.62;100.00;98264.13;332319;28;18048;-75
2023/12/22 00:13:42;;;;;;;0.70;0.30;;;;;;;6.41;100.00;98256.31;331472;28;17894;-75
2023/12/22 00:13:54;;;;;;;0.30;0.20;;;;;;;6.39;100.00;98256.34;332590;28;17706;-76
2023/12/22 00:14:06;;;;;;;0.40;0.20;;;;;;;6.39;100.00;98256.34;334751;28;5399;-76
2023/12/22 00:14:19;;;;;;;0.25;0.20;;;;;;;6.35;100.00;98257.38;332010;28;18075;-75
2023/12/22 00:14:31;;;;;;;0.15;0.15;;;;;;;6.32;100.00;98254.91;335896;28;5333;-75
2023/12/22 00:14:42;;;;;;;0.20;0.20;;;;;;;6.27;100.00;98261.97;332719;29;6357;-75
2023/12/22 00:14:55;;;;;;;0.43;0.40;;;;;;;6.24;100.00;98263.81;333500;29;4725;-75
2023/12/22 00:15:07;;;;;;;0.47;0.40;;;;;;;6.24;100.00;98251.78;333764;29;5539;-75
2023/12/22 00:15:19;;;;;;;0.43;0.32;;;;;;;6.15;100.00;98258.09;326850;28;4752;-75
2023/12/22 00:15:31;;;;;;;0.80;0.38;;;;;;;6.17;100.00;98255.47;335671;28;5403;-75
2023/12/22 00:15:43;;;;;;;0.95;0.40;;;;;;;6.22;100.00;98263.91;332227;28;14451;-75
2023/12/22 00:15:55;;;;;;;0.30;0.10;;;;;;;6.20;100.00;98255.38;333563;29;4611;-76
2023/12/22 00:16:07;;;;;;;0.30;0.10;;;;;;;6.20;100.00;98260.53;333519;29;4543;-76
2023/12/22 00:16:19;;;;;;;0.20;0.10;;;;;;;6.15;100.00;98263.28;331051;29;18715;-75
2023/12/22 00:16:31;;;;;;;0.45;0.30;;;;;;;6.15;100.00;98257.28;334511;29;5168;-75
2023/12/22 00:16:43;;;;;;;0.45;0.30;;;;;;;6.12;100.00;98257.41;326614;29;11238;-75
2023/12/22 00:16:55;;;;;;;0.43;0.38;;;;;;;5.99;100.00;98262.16;334837;29;4731;-75
2023/12/22 00:17:07;;;;;;;1.90;0.65;;;;;;;6.03;100.00;98255.97;335927;28;5119;-75
2023/12/22 00:17:19;;;;;;;2.10;0.80;;;;;;;5.98;100.00;98256.16;332386;28;14922;-75
2023/12/22 00:17:32;;;;;;;3.17;0.85;;;;;;;6.03;100.00;98247.41;335661;28;4674;-76
2023/12/22 00:17:44;;;;;;;1.75;0.57;;;;;;;6.04;100.00;98254.25;331368;28;17379;-77
2023/12/22 00:17:56;;;;;;;1.67;0.47;;;;;;;6.15;100.00;98247.78;334853;29;4991;-76
2023/12/22 00:18:08;;;;;;;0.68;0.30;;;;;;;6.22;100.00;98255.31;334057;28;5344;-76
2023/12/22 00:18:20;;;;;;;0.70;0.25;;;;;;;6.26;100.00;98250.00;337107;28;5076;-76
2023/12/22 00:18:32;;;;;;;0.50;0.10;;;;;;;6.30;100.00;98255.84;336196;28;4692;-75
2023/12/22 00:18:45;;;;;;;0.25;0.10;;;;;;;6.31;100.00;98260.97;334323;28;17545;-76
2023/12/22 00:18:57;;;;;;;0.20;0.10;;;;;;;6.31;100.00;98268.72;338211;28;4555;-76
2023/12/22 00:19:09;;;;;;;0.40;0.10;;;;;;;6.27;100.00;98267.13;333741;28;18966;-75
2023/12/22 00:19:21;;;;;;;0.40;0.17;;;;;;;6.16;100.00;98264.13;336939;28;5289;-76
2023/12/22 00:19:34;;;;;;;0.47;0.25;;;;;;;6.16;100.00;98269.28;334884;29;13417;-76
2023/12/22 00:19:46;;;;;;;0.30;0.30;;;;;;;6.17;100.00;98273.53;336511;28;17220;-76
2023/12/22 00:20:02;;;;;;;0.28;0.28;;;;;;;6.13;100.00;98274.56;335992;28;5203;-76
2023/12/22 00:20:15;;;;;;;0.20;0.20;;;;;;;6.08;100.00;98272.16;333202;28;17883;-75
2023/12/22 00:20:27;;;;;;;0.70;0.20;;;;;;;6.00;100.00;98285.31;334448;29;5340;-75
2023/12/22 00:20:39;;;;;;;0.90;0.30;;;;;;;5.97;100.00;98267.38;331984;28;10941;-76
2023/12/22 00:20:51;;;;;;;0.22;0.20;;;;;;;5.97;100.00;98282.00;333034;29;5137;-75
2023/12/22 00:21:03;;;;;;;0.70;0.55;;;;;;;5.94;100.00;98280.34;329220;29;5528;-75
2023/12/22 00:21:15;;;;;;;1.45;1.00;;;;;;;5.93;100.00;98273.50;330473;29;18090;-77
2023/12/22 00:21:27;;;;;;;1.77;1.27;;;;;;;5.93;100.00;98278.66;332616;29;5592;-75
2023/12/22 00:21:39;;;;;;;0.98;0.75;;;;;;;5.85;100.00;98261.78;331230;29;18216;-75
2023/12/22 00:21:51;;;;;;;0.77;0.55;;;;;;;5.89;100.00;98271.09;333915;29;7151;-75
2023/12/22 00:22:03;;;;;;;0.47;0.30;;;;;;;5.89;100.00;98266.75;333105;29;5392;-75
2023/12/22 00:22:16;;;;;;;0.40;0.20;;;;;;;5.94;100.00;98258.88;331504;29;18971;-76
2023/12/22 00:22:28;;;;;;;0.50;0.22;;;;;;;5.90;100.00;98253.00;334091;29;5465;-76
2023/12/22 00:22:40;;;;;;;0.60;0.30;;;;;;;5.88;100.00;98259.94;329948;28;18368;-76
2023/12/22 00:22:52;;;;;;;0.45;0.30;;;;;;;5.87;100.00;98260.81;335600;28;6012;-76
2023/12/22 00:23:04;;;;;;;0.20;0.20;;;;;;;5.86;100.00;98256.56;332904;28;13637;-75
2023/12/22 00:23:16;;;;;;;0.20;0.20;;;;;;;5.83;100.00;98251.50;335703;28;5372;-76
2023/12/22 00:23:28;;;;;;;0.20;0.20;;;;;;;5.87;100.00;98247.94;334850;29;5527;-76
2023/12/22 00:23:40;;;;;;;4.25;0.20;;;;;;;5.82;100.00;98257.59;332653;28;18104;-76
2023/12/22 00:23:52;;;;;;;4.70;0.20;;;;;;;5.83;100.00;98254.09;335882;28;4700;-75
2023/12/22 00:24:04;;;;;;;4.72;0.20;;;;;;;5.78;100.00;98258.59;337017;28;5325;-75
2023/12/22 00:24:16;;;;;;;0.20;0.20;;;;;;;5.78;100.00;98258.59;333839;28;17904;-75
2023/12/22 00:24:29;;;;;;;1.58;0.38;;;;;;;5.77;100.00;98257.72;336816;28;4604;-75
2023/12/22 00:24:41;;;;;;;1.80;0.57;;;;;;;5.74;100.00;98255.28;333951;28;16949;-75
2023/12/22 00:24:53;;;;;;;1.65;0.50;;;;;;;5.78;100.00;98263.75;337238;28;4563;-75
2023/12/22 00:25:07;;;;;;;0.25;0.25;;;;;;;5.82;100.00;98270.47;333938;28;13505;-75
2023/12/22 00:25:19;;;;;;;0.40;0.20;;;;;;;5.86;100.00;98272.06;332582;28;5591;-75
2023/12/22 00:25:31;;;;;;;0.40;0.22;;;;;;;5.85;100.00;98272.94;334220;28;12423;-75
2023/12/22 00:25:43;;;;;;;0.52;0.32;;;;;;;5.75;100.00;98258.69;337084;28;5235;-75
2023/12/22 00:25:55;;;;;;;0.40;0.40;;;;;;;5.75;100.00;98258.69;334099;28;15975;-75
2023/12/22 00:26:07;;;;;;;0.40;0.40;;;;;;;5.76;100.00;98258.63;337232;28;4822;-75
2023/12/22 00:26:19;;;;;;;0.98;0.40;;;;;;;5.72;100.00;98261.38;336115;28;5330;-76
2023/12/22 00:26:31;;;;;;;0.90;0.30;;;;;;;5.73;100.00;98255.31;332749;28;17849;-75
2023/12/22 00:26:43;;;;;;;0.40;0.40;;;;;;;5.73;100.00;98255.31;336993;28;4626;-75
2023/12/22 00:26:56;;;;;;;0.65;0.30;;;;;;;5.77;100.00;98246.59;331509;28;12612;-75
2023/12/22 00:27:07;;;;;;;0.70;0.40;;;;;;;5.79;100.00;98245.66;332434;28;17113;-76
2023/12/22 00:27:19;;;;;;;0.30;0.20;;;;;;;5.81;100.00;98235.25;334235;28;5807;-75
2023/12/22 00:27:31;;;;;;;0.13;0.13;;;;;;;5.80;100.00;98236.16;332311;28;13634;-75
2023/12/22 00:27:44;;;;;;;0.20;0.20;;;;;;;5.78;100.00;98232.81;335576;28;4819;-75
2023/12/22 00:27:56;;;;;;;0.50;0.20;;;;;;;5.77;100.00;98231.09;333000;28;13338;-75
2023/12/22 00:28:08;;;;;;;0.50;0.30;;;;;;;5.78;100.00;98228.47;331572;28;5569;-75
2023/12/22 00:28:20;;;;;;;0.98;0.32;;;;;;;5.74;100.00;98236.38;335773;28;5492;-75
2023/12/22 00:28:32;;;;;;;0.70;0.30;;;;;;;5.72;100.00;98238.19;330750;28;17989;-76
2023/12/22 00:28:44;;;;;;;0.52;0.22;;;;;;;5.76;100.00;98229.44;337054;28;5597;-76
2023/12/22 00:28:56;;;;;;;0.30;0.30;;;;;;;5.77;100.00;98236.25;332053;28;16908;-75
2023/12/22 00:29:08;;;;;;;0.30;0.30;;;;;;;5.80;100.00;98233.59;336766;28;4551;-76
2023/12/22 00:29:20;;;;;;;0.25;0.25;;;;;;;5.79;100.00;98240.50;337235;28;4559;-75
2023/12/22 00:29:35;;;;;;;0.20;0.20;;;;;;;5.77;100.00;98231.94;330514;29;17174;-75
2023/12/22 00:29:47;;;;;;;0.43;0.20;;;;;;;5.89;100.00;98235.81;327186;28;14803;-75
2023/12/22 00:29:59;;;;;;;0.50;0.20;;;;;;;5.90;100.00;98241.84;333307;29;4593;-75
2023/12/22 00:30:11;;;;;;;0.70;0.15;;;;;;;5.92;100.00;98235.72;334882;28;4649;-75
2023/12/22 00:30:24;;;;;;;0.40;0.10;;;;;;;5.81;100.00;98237.84;328693;28;19306;-75
2023/12/22 00:30:36;;;;;;;0.17;0.10;;;;;;;5.81;100.00;98232.69;335013;29;5334;-77
2023/12/22 00:30:48;;;;;;;0.10;0.10;;;;;;;5.84;100.00;98248.06;333907;28;18370;-75
2023/12/22 00:31:00;;;;;;;0.10;0.10;;;;;;;5.82;100.00;98233.53;336963;28;5500;-76
2023/12/22 00:31:12;;;;;;;0.70;0.20;;;;;;;5.86;100.00;98235.94;330790;28;4722;-76
2023/12/22 00:31:24;;;;;;;0.70;0.20;;;;;;;5.87;100.00;98234.19;336645;28;4762;-75
2023/12/22 00:31:36;;;;;;;0.60;0.10;;;;;;;5.88;100.00;98239.31;337393;28;5186;-76
2023/12/22 00:31:48;;;;;;;0.20;0.20;;;;;;;5.85;100.00;98239.41;334005;28;18516;-76
2023/12/22 00:32:01;;;;;;;0.30;0.20;;;;;;;5.81;100.00;98237.84;335932;28;4755;-75
2023/12/22 00:32:13;;;;;;;0.28;0.22;;;;;;;5.82;100.00;98238.69;334400;28;17944;-75
2023/12/22 00:32:25;;;;;;;0.40;0.30;;;;;;;5.78;100.00;98243.13;337085;28;4552;-75
2023/12/22 00:32:37;;;;;;;0.95;0.45;;;;;;;5.76;100.00;98244.91;337405;28;5225;-75
2023/12/22 00:32:50;;;;;;;0.98;0.43;;;;;;;5.78;100.00;98248.28;333033;28;18359;-75
2023/12/22 00:33:02;;;;;;;0.90;0.30;;;;;;;5.76;100.00;98252.66;335834;28;5701;-76
2023/12/22 00:33:14;;;;;;;0.30;0.17;;;;;;;5.76;100.00;98244.91;332920;29;18235;-76
2023/12/22 00:33:26;;;;;;;0.30;0.10;;;;;;;5.75;100.00;98249.19;335054;29;5585;-76
2023/12/22 00:33:39;;;;;;;0.10;0.10;;;;;;;5.74;100.00;98251.88;332493;28;18005;-75
2023/12/22 00:33:51;;;;;;;0.20;0.20;;;;;;;5.72;100.00;98256.22;335750;28;4584;-75
2023/12/22 00:34:03;;;;;;;0.20;0.20;;;;;;;5.63;100.00;98249.63;330380;28;13843;-75
2023/12/22 00:34:15;;;;;;;0.50;0.30;;;;;;;5.64;100.00;98247.94;335657;28;4957;-76
2023/12/22 00:34:27;;;;;;;0.60;0.38;;;;;;;5.64;100.00;98260.81;335341;29;4954;-75
2023/12/22 00:34:40;;;;;;;0.52;0.35;;;;;;;5.70;100.00;98250.28;328133;28;18017;-75
2023/12/22 00:34:52;;;;;;;0.30;0.30;;;;;;;5.69;100.00;98256.31;335681;29;5483;-76
2023/12/22 00:35:05;;;;;;;0.30;0.30;;;;;;;5.72;100.00;98256.22;331646;29;19459;-77
2023/12/22 00:35:17;;;;;;;1.02;0.30;;;;;;;5.75;100.00;98253.53;335742;28;4635;-75
2023/12/22 00:35:29;;;;;;;1.17;0.30;;;;;;;5.82;100.00;98252.44;331896;29;17583;-75
2023/12/22 00:35:41;;;;;;;0.65;0.30;;;;;;;5.85;100.00;98260.03;334603;29;4724;-75
2023/12/22 00:35:53;;;;;;;0.28;0.20;;;;;;;5.80;100.00;98257.63;331916;29;13821;-75
2023/12/22 00:36:05;;;;;;;0.25;0.10;;;;;;;5.85;100.00;98260.03;334480;29;6061;-76
2023/12/22 00:36:18;;;;;;;0.15;0.10;;;;;;;5.85;100.00;98264.34;334766;29;4629;-76
2023/12/22 00:36:30;;;;;;;1.10;0.30;;;;;;;5.86;100.00;98261.72;331378;29;19736;-77
2023/12/22 00:36:42;;;;;;;1.05;0.30;;;;;;;5.91;100.00;98258.97;332941;29;4978;-76
2023/12/22 00:36:54;;;;;;;0.35;0.15;;;;;;;5.92;100.00;98256.34;329745;29;16445;-77
2023/12/22 00:37:06;;;;;;;0.10;0.10;;;;;;;5.88;100.00;98259.94;331919;29;17369;-76
2023/12/22 00:37:18;;;;;;;0.10;0.10;;;;;;;5.88;100.00;98264.25;334606;29;4663;-76
2023/12/22 00:37:30;;;;;;;0.10;0.10;;;;;;;5.86;100.00;98264.31;331511;29;18099;-76
2023/12/22 00:37:42;;;;;;;0.10;0.10;;;;;;;5.84;100.00;98263.53;334367;28;4665;-77
2023/12/22 00:37:54;;;;;;;0.10;0.10;;;;;;;5.82;100.00;98262.75;330586;29;16730;-76
2023/12/22 00:38:06;;;;;;;0.10;0.10;;;;;;;5.82;100.00;98257.59;333166;29;5418;-77
2023/12/22 00:38:19;;;;;;;0.90;0.15;;;;;;;5.85;100.00;98256.63;327496;28;13171;-75
2023/12/22 00:38:31;;;;;;;1.20;0.20;;;;;;;5.84;100.00;98263.53;332060;29;18058;-75
2023/12/22 00:38:43;;;;;;;1.80;0.30;;;;;;;5.78;100.00;98256.00;334171;28;4584;-75
2023/12/22 00:38:55;;;;;;;1.00;0.20;;;;;;;5.76;100.00;98265.53;332955;29;18697;-77
2023/12/22 00:39:07;;;;;;;0.55;0.15;;;;;;;5.76;100.00;98255.22;335697;28;6023;-75
2023/12/22 00:39:19;;;;;;;0.20;0.20;;;;;;;5.76;100.00;98256.06;332195;28;14703;-75
2023/12/22 00:39:32;;;;;;;0.20;0.20;;;;;;;5.76;100.00;98260.38;334701;28;4643;-75
2023/12/22 00:39:44;;;;;;;0.20;0.20;;;;;;;5.78;100.00;98253.44;334497;29;4633;-76
2023/12/22 00:39:56;;;;;;;0.10;0.10;;;;;;;5.77;100.00;98251.75;328274;28;18384;-75
2023/12/22 00:40:09;;;;;;;0.10;0.10;;;;;;;5.74;100.00;98254.44;335413;28;4693;-76
2023/12/22 00:40:21;;;;;;;0.10;0.10;;;;;;;5.73;100.00;98250.16;331563;28;15031;-75
2023/12/22 00:40:34;;;;;;;0.30;0.20;;;;;;;5.72;100.00;98253.66;334748;29;5284;-76
2023/12/22 00:40:45;;;;;;;0.40;0.20;;;;;;;5.73;100.00;98250.16;332329;28;13758;-75
2023/12/22 00:40:57;;;;;;;0.20;0.20;;;;;;;5.73;100.00;98260.47;336180;28;4735;-75
2023/12/22 00:41:10;;;;;;;0.10;0.10;;;;;;;5.76;100.00;98257.81;336041;28;5362;-76
2023/12/22 00:41:22;;;;;;;0.10;0.10;;;;;;;5.73;100.00;98260.47;332724;28;18212;-77
2023/12/22 00:41:34;;;;;;;0.10;0.10;;;;;;;5.66;100.00;98248.72;336265;28;6220;-75
2023/12/22 00:41:46;;;;;;;0.20;0.20;;;;;;;5.66;100.00;98249.53;332301;28;18341;-76
2023/12/22 00:41:58;;;;;;;0.77;0.30;;;;;;;5.70;100.00;98251.13;336305;28;4641;-76
2023/12/22 00:42:10;;;;;;;0.80;0.40;;;;;;;5.77;100.00;98262.06;333010;28;6724;-77
2023/12/22 00:42:22;;;;;;;0.73;0.30;;;;;;;5.78;100.00;98259.44;334257;29;4769;-76
2023/12/22 00:42:34;;;;;;;0.40;0.10;;;;;;;5.84;100.00;98270.44;333531;29;5388;-75
2023/12/22 00:42:46;;;;;;;0.25;0.10;;;;;;;5.88;100.00;98275.41;333611;28;13804;-75
2023/12/22 00:42:58;;;;;;;0.35;0.20;;;;;;;5.87;100.00;98268.56;332863;28;18245;-77
2023/12/22 00:43:10;;;;;;;0.40;0.20;;;;;;;5.86;100.00;98272.06;334056;28;4652;-76
2023/12/22 00:43:22;;;;;;;0.75;0.30;;;;;;;5.88;100.00;98280.56;331871;29;18500;-75
2023/12/22 00:43:34;;;;;;;0.50;0.20;;;;;;;5.70;100.00;98271.75;332276;29;5474;-77
2023/12/22 00:43:46;;;;;;;0.35;0.20;;;;;;;5.69;100.00;98279.53;330748;29;9707;-76
2023/12/22 00:43:58;;;;;;;0.30;0.20;;;;;;;5.76;100.00;98268.94;334684;29;4761;-76
2023/12/22 00:44:10;;;;;;;0.28;0.17;;;;;;;5.73;100.00;98263.88;330431;29;4578;-76
2023/12/22 00:44:22;;;;;;;0.20;0.10;;;;;;;5.76;100.00;98255.22;331648;29;19006;-77
2023/12/22 00:44:34;;;;;;;0.38;0.13;;;;;;;5.70;100.00;98255.44;334645;29;4770;-76
2023/12/22 00:44:46;;;;;;;0.60;0.20;;;;;;;5.68;100.00;98257.22;332249;29;15905;-75
2023/12/22 00:45:01;;;;;;;0.57;0.20;;;;;;;5.71;100.00;98249.38;335258;29;4571;-76
2023/12/22 00:45:13;;;;;;;0.10;0.10;;;;;;;5.72;100.00;98248.50;331204;29;18250;-76
2023/12/22 00:45:25;;;;;;;0.15;0.15;;;;;;;5.66;100.00;98246.13;333474;29;4732;-76
2023/12/22 00:45:37;;;;;;;0.10;0.10;;;;;;;5.62;100.00;98247.13;330677;29;4704;-75
2023/12/22 00:45:49;;;;;;;0.10;0.10;;;;;;;5.66;100.00;98248.72;333525;29;4645;-76
2023/12/22 00:46:01;;;;;;;0.20;0.20;;;;;;;5.67;100.00;98245.22;331221;29;5345;-75
2023/12/22 00:46:13;;;;;;;0.20;0.20;;;;;;;5.58;100.00;98246.41;333724;29;5091;-76
2023/12/22 00:46:26;;;;;;;0.20;0.20;;;;;;;5.63;100.00;98238.50;332328;29;4713;-75
2023/12/22 00:46:38;;;;;;;0.20;0.20;;;;;;;5.64;100.00;98240.19;334224;28;18224;-75
2023/12/22 00:46:50;;;;;;;0.10;0.10;;;;;;;5.62;100.00;98241.97;334733;28;5190;-76
2023/12/22 00:47:02;;;;;;;0.20;0.20;;;;;;;5.59;100.00;98238.63;329949;29;12757;-76
2023/12/22 00:47:14;;;;;;;0.20;0.20;;;;;;;5.60;100.00;98245.44;331105;29;18006;-76
2023/12/22 00:47:26;;;;;;;0.40;0.32;;;;;;;5.60;100.00;98242.88;334944;28;5122;-76
2023/12/22 00:47:38;;;;;;;0.35;0.35;;;;;;;5.60;100.00;98250.59;330828;29;17787;-75
2023/12/22 00:47:50;;;;;;;0.30;0.30;;;;;;;5.64;100.00;98255.66;334282;29;5296;-75
2023/12/22 00:48:03;;;;;;;0.30;0.30;;;;;;;5.65;100.00;98253.00;329616;29;18189;-75
2023/12/22 00:48:15;;;;;;;1.10;0.40;;;;;;;5.69;100.00;98253.75;332574;29;4591;-76
2023/12/22 00:48:28;;;;;;;1.13;0.40;;;;;;;5.72;100.00;98258.81;326512;29;18283;-75
2023/12/22 00:48:40;;;;;;;0.90;0.50;;;;;;;5.71;100.00;98255.38;334448;29;4662;-76
2023/12/22 00:48:52;;;;;;;0.80;0.50;;;;;;;5.75;100.00;98258.69;332227;29;16320;-76
2023/12/22 00:49:04;;;;;;;0.75;0.47;;;;;;;5.72;100.00;98248.50;335592;29;4762;-77
2023/12/22 00:49:18;;;;;;;2.80;0.50;;;;;;;5.72;100.00;98249.31;336025;29;5262;-75
2023/12/22 00:49:30;;;;;;;2.88;0.45;;;;;;;5.76;100.00;98256.06;333215;29;17896;-75
2023/12/22 00:49:42;;;;;;;3.05;0.50;;;;;;;5.67;100.00;98250.38;334831;29;15865;-76
2023/12/22 00:49:54;;;;;;;0.60;0.40;;;;;;;5.64;100.00;98253.09;333453;28;17874;-76
2023/12/22 00:50:07;;;;;;;0.70;0.40;;;;;;;5.77;100.00;98246.59;329599;29;4696;-76
2023/12/22 00:50:20;;;;;;;0.30;0.28;;;;;;;5.69;100.00;98248.59;332005;29;18367;-75
2023/12/22 00:50:32;;;;;;;0.28;0.17;;;;;;;5.71;100.00;98252.78;334473;29;5516;-75
2023/12/22 00:50:44;;;;;;;0.10;0.10;;;;;;;5.76;100.00;98250.91;331530;29;18113;-75
2023/12/22 00:50:56;;;;;;;0.13;0.13;;;;;;;5.76;100.00;98250.06;334900;29;5356;-75
2023/12/22 00:51:08;;;;;;;0.20;0.20;;;;;;;5.70;100.00;98250.28;331718;29;7955;-75
2023/12/22 00:51:20;;;;;;;0.20;0.20;;;;;;;5.61;100.00;98243.69;330071;29;5349;-75
2023/12/22 00:51:32;;;;;;;0.20;0.20;;;;;;;5.60;100.00;98250.59;334841;29;5666;-75
2023/12/22 00:51:44;;;;;;;1.50;0.20;;;;;;;5.63;100.00;98248.81;329267;29;18237;-76
2023/12/22 00:51:56;;;;;;;1.60;0.30;;;;;;;5.65;100.00;98244.44;334908;29;4736;-75
2023/12/22 00:52:08;;;;;;;1.25;0.28;;;;;;;5.69;100.00;98251.16;333221;28;13357;-75
2023/12/22 00:52:20;;;;;;;0.13;0.13;;;;;;;5.70;100.00;98245.97;335995;28;5323;-75
2023/12/22 00:52:32;;;;;;;0.10;0.10;;;;;;;5.72;100.00;98253.66;335555;28;4595;-75
2023/12/22 00:52:44;;;;;;;0.10;0.10;;;;;;;5.76;100.00;98255.22;333649;28;17888;-76
2023/12/22 00:52:56;;;;;;;0.40;0.20;;;;;;;5.81;100.00;98248.16;335979;29;5458;-77
2023/12/22 00:53:08;;;;;;;0.40;0.20;;;;;;;5.78;100.00;98248.28;333358;29;18132;-77
2023/12/22 00:53:20;;;;;;;0.40;0.20;;;;;;;5.80;100.00;98246.47;335354;28;5496;-76
2023/12/22 00:53:32;;;;;;;0.10;0.10;;;;;;;5.78;100.00;98243.13;335768;29;5223;-76
2023/12/22 00:53:44;;;;;;;0.10;0.10;;;;;;;5.78;100.00;98256.84;332726;28;18257;-76
2023/12/22 00:53:56;;;;;;;0.20;0.20;;;;;;;5.77;100.00;98249.16;335921;28;5404;-77
2023/12/22 00:54:08;;;;;;;0.30;0.30;;;;;;;5.64;100.00;98250.50;335089;28;5057;-77
2023/12/22 00:54:20;;;;;;;0.30;0.30;;;;;;;5.63;100.00;98248.81;327129;29;18338;-76
2023/12/22 00:54:32;;;;;;;0.30;0.30;;;;;;;5.64;100.00;98245.34;334772;29;5428;-77
2023/12/22 00:54:44;;;;;;;0.40;0.30;;;;;;;5.57;100.00;98249.84;328775;29;18085;-76
2023/12/22 00:54:56;;;;;;;0.40;0.30;;;;;;;5.57;100.00;98249.84;332145;29;4559;-76
2023/12/22 00:55:08;;;;;;;0.77;0.40;;;;;;;5.59;100.00;98253.22;333038;29;4561;-78
2023/12/22 00:55:20;;;;;;;0.80;0.40;;;;;;;5.63;100.00;98249.63;329909;29;18157;-77
2023/12/22 00:55:32;;;;;;;0.60;0.30;;;;;;;5.66;100.00;98243.56;333335;29;4748;-76
2023/12/22 00:55:45;;;;;;;0.30;0.30;;;;;;;5.68;100.00;98246.91;330720;29;14259;-77
2023/12/22 00:55:57;;;;;;;1.20;0.40;;;;;;;5.70;100.00;98242.56;332248;29;5483;-76
2023/12/22 00:56:12;;;;;;;1.20;0.32;;;;;;;5.69;100.00;98240.84;329471;29;18284;-76
2023/12/22 00:56:24;;;;;;;0.30;0.30;;;;;;;5.70;100.00;98237.41;330099;29;17885;-77
2023/12/22 00:56:36;;;;;;;0.32;0.32;;;;;;;5.72;100.00;98243.34;334941;28;4548;-77
2023/12/22 00:56:48;;;;;;;0.40;0.40;;;;;;;5.71;100.00;98237.31;334555;29;4709;-76
2023/12/22 00:57:00;;;;;;;0.40;0.40;;;;;;;5.74;100.00;98236.38;331921;29;17620;-78
2023/12/22 00:57:13;;;;;;;0.50;0.30;;;;;;;5.72;100.00;98239.00;330458;29;5475;-76
2023/12/22 00:57:25;;;;;;;0.50;0.38;;;;;;;5.72;100.00;98235.59;333033;28;12725;-76
2023/12/22 00:57:37;;;;;;;0.47;0.40;;;;;;;5.72;100.00;98228.69;335171;28;5840;-76
2023/12/22 00:57:49;;;;;;;0.35;0.35;;;;;;;5.73;100.00;98234.69;335583;28;4585;-76
2023/12/22 00:58:01;;;;;;;0.28;0.28;;;;;;;5.73;100.00;98224.38;333473;28;18241;-76
2023/12/22 00:58:13;;;;;;;0.20;0.20;;;;;;;5.68;100.00;98231.47;335474;28;5160;-76
2023/12/22 00:58:25;;;;;;;0.20;0.20;;;;;;;5.67;100.00;98234.91;329283;29;17606;-76